sensor_id;sensor_type;location;lat;lon;timestamp;P1;durP1;ratioP1;P2;durP2;ratioP2
11220;SDS011;8517;53.546;10.104;2023-05-07T00:00:42;10.60;;;9.50;;
11220;SDS011;8517;53.546;10.104;2023-05-07T00:03:09;10.13;;;8.47;;
11220;SDS011;8517;53.546;10.104;2023-05-07T00:05:37;11.03;;;9.83;;
11220;SDS011;8517;53.546;10.104;2023-05-07T00:08:04;9.77;;;8.77;;
11220;SDS011;8517;53.546;10.104;2023-05-07T00:10:31;10.70;;;9.20;;
11220;SDS011;8517;53.546;10.104;2023-05-07T00:12:58;9.10;;;7.90;;
11220;SDS011;8517;53.546;10.104;2023-05-07T00:15:25;12.43;;;9.50;;
11220;SDS011;8517;53.546;10.104;2023-05-07T00:17:53;9.90;;;7.80;;
11220;SDS011;8517;53.546;10.104;2023-05-07T00:20:20;10.50;;;9.30;;
11220;SDS011;8517;53.546;10.104;2023-05-07T00:22:48;10.13;;;9.13;;
11220;SDS011;8517;53.546;10.104;2023-05-07T00:25:15;10.80;;;8.50;;
11220;SDS011;8517;53.546;10.104;2023-05-07T00:27:41;9.27;;;5.73;;
11220;SDS011;8517;53.546;10.104;2023-05-07T00:30:08;11.00;;;9.83;;
11220;SDS011;8517;53.546;10.104;2023-05-07T00:32:36;8.80;;;7.93;;
11220;SDS011;8517;53.546;10.104;2023-05-07T00:35:03;9.73;;;8.67;;
11220;SDS011;8517;53.546;10.104;2023-05-07T00:37:31;10.97;;;9.60;;
11220;SDS011;8517;53.546;10.104;2023-05-07T00:39:59;10.07;;;8.83;;
11220;SDS011;8517;53.546;10.104;2023-05-07T00:42:28;8.47;;;7.47;;
11220;SDS011;8517;53.546;10.104;2023-05-07T00:44:57;11.13;;;9.30;;
11220;SDS011;8517;53.546;10.104;2023-05-07T00:47:24;8.80;;;6.67;;
11220;SDS011;8517;53.546;10.104;2023-05-07T00:49:51;8.90;;;7.70;;
11220;SDS011;8517;53.546;10.104;2023-05-07T00:52:19;10.20;;;7.50;;
11220;SDS011;8517;53.546;10.104;2023-05-07T00:54:47;7.00;;;5.67;;
11220;SDS011;8517;53.546;10.104;2023-05-07T00:57:16;10.10;;;8.73;;
11220;SDS011;8517;53.546;10.104;2023-05-07T00:59:43;8.50;;;7.33;;
11220;SDS011;8517;53.546;10.104;2023-05-07T01:02:10;10.33;;;9.00;;
11220;SDS011;8517;53.546;10.104;2023-05-07T01:04:37;10.27;;;9.17;;
11220;SDS011;8517;53.546;10.104;2023-05-07T01:07:04;9.40;;;8.40;;
11220;SDS011;8517;53.546;10.104;2023-05-07T01:09:31;6.80;;;5.87;;
11220;SDS011;8517;53.546;10.104;2023-05-07T01:12:00;8.93;;;8.03;;
11220;SDS011;8517;53.546;10.104;2023-05-07T01:14:28;7.33;;;6.60;;
11220;SDS011;8517;53.546;10.104;2023-05-07T01:16:56;10.57;;;8.40;;
11220;SDS011;8517;53.546;10.104;2023-05-07T01:19:23;10.00;;;8.80;;
11220;SDS011;8517;53.546;10.104;2023-05-07T01:21:51;8.97;;;7.93;;
11220;SDS011;8517;53.546;10.104;2023-05-07T01:24:26;8.20;;;6.50;;
11220;SDS011;8517;53.546;10.104;2023-05-07T01:26:53;8.33;;;7.37;;
11220;SDS011;8517;53.546;10.104;2023-05-07T01:29:20;9.00;;;7.57;;
11220;SDS011;8517;53.546;10.104;2023-05-07T01:31:47;7.83;;;6.90;;
11220;SDS011;8517;53.546;10.104;2023-05-07T01:34:16;8.63;;;6.97;;
11220;SDS011;8517;53.546;10.104;2023-05-07T01:36:44;10.20;;;8.00;;
11220;SDS011;8517;53.546;10.104;2023-05-07T01:39:12;9.60;;;7.77;;
11220;SDS011;8517;53.546;10.104;2023-05-07T01:41:42;8.37;;;7.53;;
11220;SDS011;8517;53.546;10.104;2023-05-07T01:44:09;8.17;;;7.33;;
11220;SDS011;8517;53.546;10.104;2023-05-07T01:46:38;10.00;;;8.37;;
11220;SDS011;8517;53.546;10.104;2023-05-07T01:49:07;8.33;;;7.53;;
11220;SDS011;8517;53.546;10.104;2023-05-07T01:51:36;6.93;;;6.23;;
11220;SDS011;8517;53.546;10.104;2023-05-07T01:54:03;8.27;;;7.43;;
11220;SDS011;8517;53.546;10.104;2023-05-07T01:56:31;8.33;;;5.90;;
11220;SDS011;8517;53.546;10.104;2023-05-07T01:58:59;9.13;;;7.80;;
11220;SDS011;8517;53.546;10.104;2023-05-07T02:01:27;8.13;;;7.27;;
11220;SDS011;8517;53.546;10.104;2023-05-07T02:03:53;10.00;;;7.40;;
11220;SDS011;8517;53.546;10.104;2023-05-07T02:06:20;8.70;;;7.80;;
11220;SDS011;8517;53.546;10.104;2023-05-07T02:08:47;7.63;;;6.63;;
11220;SDS011;8517;53.546;10.104;2023-05-07T02:11:14;8.47;;;7.27;;
11220;SDS011;8517;53.546;10.104;2023-05-07T02:13:41;8.50;;;6.97;;
11220;SDS011;8517;53.546;10.104;2023-05-07T02:16:09;7.70;;;5.93;;
11220;SDS011;8517;53.546;10.104;2023-05-07T02:18:38;8.67;;;7.87;;
11220;SDS011;8517;53.546;10.104;2023-05-07T02:21:05;8.00;;;7.20;;
11220;SDS011;8517;53.546;10.104;2023-05-07T02:23:32;8.63;;;6.97;;
11220;SDS011;8517;53.546;10.104;2023-05-07T02:25:59;6.97;;;5.97;;
11220;SDS011;8517;53.546;10.104;2023-05-07T02:28:25;7.30;;;5.50;;
11220;SDS011;8517;53.546;10.104;2023-05-07T02:30:52;7.63;;;6.70;;
11220;SDS011;8517;53.546;10.104;2023-05-07T02:33:21;8.77;;;6.43;;
11220;SDS011;8517;53.546;10.104;2023-05-07T02:35:47;6.63;;;5.77;;
11220;SDS011;8517;53.546;10.104;2023-05-07T02:38:14;5.30;;;4.73;;
11220;SDS011;8517;53.546;10.104;2023-05-07T02:40:41;7.33;;;5.87;;
11220;SDS011;8517;53.546;10.104;2023-05-07T02:43:09;8.13;;;7.27;;
11220;SDS011;8517;53.546;10.104;2023-05-07T02:45:35;8.20;;;7.03;;
11220;SDS011;8517;53.546;10.104;2023-05-07T02:48:03;7.93;;;7.13;;
11220;SDS011;8517;53.546;10.104;2023-05-07T02:50:32;7.80;;;7.00;;
11220;SDS011;8517;53.546;10.104;2023-05-07T02:52:59;8.43;;;7.63;;
11220;SDS011;8517;53.546;10.104;2023-05-07T02:55:26;7.07;;;6.30;;
11220;SDS011;8517;53.546;10.104;2023-05-07T02:57:53;7.03;;;5.40;;
11220;SDS011;8517;53.546;10.104;2023-05-07T03:00:20;7.87;;;7.03;;
11220;SDS011;8517;53.546;10.104;2023-05-07T03:02:47;10.27;;;7.70;;
11220;SDS011;8517;53.546;10.104;2023-05-07T03:05:16;7.67;;;6.33;;
11220;SDS011;8517;53.546;10.104;2023-05-07T03:07:44;9.33;;;8.17;;
11220;SDS011;8517;53.546;10.104;2023-05-07T03:10:12;8.67;;;7.17;;
11220;SDS011;8517;53.546;10.104;2023-05-07T03:12:39;9.33;;;8.33;;
11220;SDS011;8517;53.546;10.104;2023-05-07T03:15:06;9.60;;;8.47;;
11220;SDS011;8517;53.546;10.104;2023-05-07T03:17:33;9.63;;;8.63;;
11220;SDS011;8517;53.546;10.104;2023-05-07T03:20:00;9.33;;;8.33;;
11220;SDS011;8517;53.546;10.104;2023-05-07T03:22:27;9.60;;;8.60;;
11220;SDS011;8517;53.546;10.104;2023-05-07T03:25:00;10.50;;;9.30;;
11220;SDS011;8517;53.546;10.104;2023-05-07T03:27:27;10.53;;;9.17;;
11220;SDS011;8517;53.546;10.104;2023-05-07T03:29:54;9.07;;;7.60;;
11220;SDS011;8517;53.546;10.104;2023-05-07T03:32:20;9.90;;;8.87;;
11220;SDS011;8517;53.546;10.104;2023-05-07T03:34:47;9.20;;;8.30;;
11220;SDS011;8517;53.546;10.104;2023-05-07T03:37:14;8.37;;;7.50;;
11220;SDS011;8517;53.546;10.104;2023-05-07T03:39:41;9.93;;;8.27;;
11220;SDS011;8517;53.546;10.104;2023-05-07T03:42:10;9.63;;;8.47;;
11220;SDS011;8517;53.546;10.104;2023-05-07T03:44:37;8.93;;;7.63;;
11220;SDS011;8517;53.546;10.104;2023-05-07T03:47:04;8.57;;;7.67;;
11220;SDS011;8517;53.546;10.104;2023-05-07T03:49:31;8.73;;;7.83;;
11220;SDS011;8517;53.546;10.104;2023-05-07T03:51:58;8.20;;;7.40;;
11220;SDS011;8517;53.546;10.104;2023-05-07T03:54:26;8.43;;;7.20;;
11220;SDS011;8517;53.546;10.104;2023-05-07T03:56:52;8.57;;;7.60;;
11220;SDS011;8517;53.546;10.104;2023-05-07T03:59:21;8.20;;;7.40;;
11220;SDS011;8517;53.546;10.104;2023-05-07T04:01:48;8.53;;;7.70;;
11220;SDS011;8517;53.546;10.104;2023-05-07T04:04:15;7.17;;;6.33;;
11220;SDS011;8517;53.546;10.104;2023-05-07T04:06:47;8.73;;;7.83;;
11220;SDS011;8517;53.546;10.104;2023-05-07T04:09:13;10.43;;;8.17;;
11220;SDS011;8517;53.546;10.104;2023-05-07T04:11:40;7.87;;;7.07;;
11220;SDS011;8517;53.546;10.104;2023-05-07T04:14:07;9.73;;;8.00;;
11220;SDS011;8517;53.546;10.104;2023-05-07T04:16:35;8.43;;;7.50;;
11220;SDS011;8517;53.546;10.104;2023-05-07T04:19:02;8.57;;;6.90;;
11220;SDS011;8517;53.546;10.104;2023-05-07T04:21:29;8.93;;;7.97;;
11220;SDS011;8517;53.546;10.104;2023-05-07T04:23:56;9.80;;;6.70;;
11220;SDS011;8517;53.546;10.104;2023-05-07T04:26:23;9.00;;;8.07;;
11220;SDS011;8517;53.546;10.104;2023-05-07T04:28:50;6.40;;;5.40;;
11220;SDS011;8517;53.546;10.104;2023-05-07T04:31:17;8.30;;;7.07;;
11220;SDS011;8517;53.546;10.104;2023-05-07T04:33:45;8.37;;;7.50;;
11220;SDS011;8517;53.546;10.104;2023-05-07T04:36:12;8.43;;;7.27;;
11220;SDS011;8517;53.546;10.104;2023-05-07T04:38:40;7.17;;;6.47;;
11220;SDS011;8517;53.546;10.104;2023-05-07T04:41:08;7.63;;;6.77;;
11220;SDS011;8517;53.546;10.104;2023-05-07T04:43:36;7.10;;;6.27;;
11220;SDS011;8517;53.546;10.104;2023-05-07T04:46:03;7.73;;;6.83;;
11220;SDS011;8517;53.546;10.104;2023-05-07T04:48:29;8.37;;;7.00;;
11220;SDS011;8517;53.546;10.104;2023-05-07T04:50:58;8.33;;;6.30;;
11220;SDS011;8517;53.546;10.104;2023-05-07T04:53:25;8.47;;;7.23;;
11220;SDS011;8517;53.546;10.104;2023-05-07T04:55:54;8.20;;;6.67;;
11220;SDS011;8517;53.546;10.104;2023-05-07T04:58:22;7.43;;;6.30;;
11220;SDS011;8517;53.546;10.104;2023-05-07T05:00:52;8.63;;;6.57;;
11220;SDS011;8517;53.546;10.104;2023-05-07T05:03:19;9.90;;;7.83;;
11220;SDS011;8517;53.546;10.104;2023-05-07T05:05:45;9.80;;;7.13;;
11220;SDS011;8517;53.546;10.104;2023-05-07T05:08:16;7.97;;;6.90;;
11220;SDS011;8517;53.546;10.104;2023-05-07T05:10:43;9.23;;;7.60;;
11220;SDS011;8517;53.546;10.104;2023-05-07T05:13:10;8.10;;;7.00;;
11220;SDS011;8517;53.546;10.104;2023-05-07T05:15:38;7.90;;;6.77;;
11220;SDS011;8517;53.546;10.104;2023-05-07T05:18:05;8.57;;;7.13;;
11220;SDS011;8517;53.546;10.104;2023-05-07T05:20:32;8.00;;;6.93;;
11220;SDS011;8517;53.546;10.104;2023-05-07T05:22:58;8.23;;;7.00;;
11220;SDS011;8517;53.546;10.104;2023-05-07T05:25:27;8.87;;;7.97;;
11220;SDS011;8517;53.546;10.104;2023-05-07T05:27:53;9.77;;;8.17;;
11220;SDS011;8517;53.546;10.104;2023-05-07T05:30:20;7.97;;;7.17;;
11220;SDS011;8517;53.546;10.104;2023-05-07T05:32:47;8.57;;;7.10;;
11220;SDS011;8517;53.546;10.104;2023-05-07T05:35:14;7.90;;;7.10;;
11220;SDS011;8517;53.546;10.104;2023-05-07T05:37:41;11.07;;;8.33;;
11220;SDS011;8517;53.546;10.104;2023-05-07T05:40:08;10.60;;;7.33;;
11220;SDS011;8517;53.546;10.104;2023-05-07T05:42:36;22.60;;;18.20;;
11220;SDS011;8517;53.546;10.104;2023-05-07T05:45:04;7.97;;;7.17;;
11220;SDS011;8517;53.546;10.104;2023-05-07T05:47:31;10.10;;;7.80;;
11220;SDS011;8517;53.546;10.104;2023-05-07T05:49:58;8.57;;;6.23;;
11220;SDS011;8517;53.546;10.104;2023-05-07T05:52:25;9.70;;;7.63;;
11220;SDS011;8517;53.546;10.104;2023-05-07T05:54:53;8.93;;;8.03;;
11220;SDS011;8517;53.546;10.104;2023-05-07T05:57:19;11.50;;;7.70;;
11220;SDS011;8517;53.546;10.104;2023-05-07T05:59:48;8.60;;;6.93;;
11220;SDS011;8517;53.546;10.104;2023-05-07T06:02:15;10.40;;;7.57;;
11220;SDS011;8517;53.546;10.104;2023-05-07T06:04:42;8.60;;;7.73;;
11220;SDS011;8517;53.546;10.104;2023-05-07T06:07:09;10.13;;;8.37;;
11220;SDS011;8517;53.546;10.104;2023-05-07T06:09:36;8.93;;;7.83;;
11220;SDS011;8517;53.546;10.104;2023-05-07T06:12:03;8.27;;;7.30;;
11220;SDS011;8517;53.546;10.104;2023-05-07T06:14:30;7.93;;;7.13;;
11220;SDS011;8517;53.546;10.104;2023-05-07T06:16:58;8.10;;;6.53;;
11220;SDS011;8517;53.546;10.104;2023-05-07T06:19:25;8.40;;;7.03;;
11220;SDS011;8517;53.546;10.104;2023-05-07T06:21:53;7.83;;;6.73;;
11220;SDS011;8517;53.546;10.104;2023-05-07T06:24:21;7.33;;;6.63;;
11220;SDS011;8517;53.546;10.104;2023-05-07T06:26:48;9.53;;;7.23;;
11220;SDS011;8517;53.546;10.104;2023-05-07T06:29:15;8.33;;;7.27;;
11220;SDS011;8517;53.546;10.104;2023-05-07T06:31:41;6.73;;;5.87;;
11220;SDS011;8517;53.546;10.104;2023-05-07T06:34:10;7.97;;;6.80;;
11220;SDS011;8517;53.546;10.104;2023-05-07T06:36:39;8.10;;;6.70;;
11220;SDS011;8517;53.546;10.104;2023-05-07T06:39:06;9.03;;;6.80;;
11220;SDS011;8517;53.546;10.104;2023-05-07T06:41:34;7.47;;;5.80;;
11220;SDS011;8517;53.546;10.104;2023-05-07T06:44:04;5.63;;;5.03;;
11220;SDS011;8517;53.546;10.104;2023-05-07T06:46:31;6.07;;;5.37;;
11220;SDS011;8517;53.546;10.104;2023-05-07T06:48:58;7.37;;;6.10;;
11220;SDS011;8517;53.546;10.104;2023-05-07T06:51:26;7.83;;;6.80;;
11220;SDS011;8517;53.546;10.104;2023-05-07T06:53:53;5.47;;;4.73;;
11220;SDS011;8517;53.546;10.104;2023-05-07T06:56:19;6.80;;;5.23;;
11220;SDS011;8517;53.546;10.104;2023-05-07T06:58:47;7.10;;;5.13;;
11220;SDS011;8517;53.546;10.104;2023-05-07T07:01:14;7.07;;;5.80;;
11220;SDS011;8517;53.546;10.104;2023-05-07T07:03:41;6.23;;;5.37;;
11220;SDS011;8517;53.546;10.104;2023-05-07T07:06:08;7.90;;;6.20;;
11220;SDS011;8517;53.546;10.104;2023-05-07T07:08:36;6.67;;;5.93;;
11220;SDS011;8517;53.546;10.104;2023-05-07T07:11:03;7.90;;;6.70;;
11220;SDS011;8517;53.546;10.104;2023-05-07T07:13:30;7.37;;;6.67;;
11220;SDS011;8517;53.546;10.104;2023-05-07T07:15:57;6.80;;;6.07;;
11220;SDS011;8517;53.546;10.104;2023-05-07T07:18:24;5.47;;;4.97;;
11220;SDS011;8517;53.546;10.104;2023-05-07T07:20:51;7.40;;;6.43;;
11220;SDS011;8517;53.546;10.104;2023-05-07T07:23:17;6.30;;;5.70;;
11220;SDS011;8517;53.546;10.104;2023-05-07T07:25:46;7.33;;;6.23;;
11220;SDS011;8517;53.546;10.104;2023-05-07T07:28:13;7.50;;;6.30;;
11220;SDS011;8517;53.546;10.104;2023-05-07T07:30:40;7.13;;;6.20;;
11220;SDS011;8517;53.546;10.104;2023-05-07T07:33:06;6.97;;;5.83;;
11220;SDS011;8517;53.546;10.104;2023-05-07T07:35:33;6.33;;;4.87;;
11220;SDS011;8517;53.546;10.104;2023-05-07T07:38:00;6.17;;;5.57;;
11220;SDS011;8517;53.546;10.104;2023-05-07T07:40:27;5.87;;;4.57;;
11220;SDS011;8517;53.546;10.104;2023-05-07T07:42:56;6.37;;;5.00;;
11220;SDS011;8517;53.546;10.104;2023-05-07T07:45:23;5.43;;;4.93;;
11220;SDS011;8517;53.546;10.104;2023-05-07T07:47:50;5.80;;;4.83;;
11220;SDS011;8517;53.546;10.104;2023-05-07T07:50:17;5.37;;;4.87;;
11220;SDS011;8517;53.546;10.104;2023-05-07T07:52:44;6.50;;;5.90;;
11220;SDS011;8517;53.546;10.104;2023-05-07T07:55:11;7.17;;;6.47;;
11220;SDS011;8517;53.546;10.104;2023-05-07T07:57:38;6.13;;;5.00;;
11220;SDS011;8517;53.546;10.104;2023-05-07T08:00:07;6.40;;;5.37;;
11220;SDS011;8517;53.546;10.104;2023-05-07T08:02:35;5.90;;;5.23;;
11220;SDS011;8517;53.546;10.104;2023-05-07T08:05:01;5.10;;;4.00;;
11220;SDS011;8517;53.546;10.104;2023-05-07T08:07:29;6.00;;;5.33;;
11220;SDS011;8517;53.546;10.104;2023-05-07T08:09:55;5.80;;;5.10;;
11220;SDS011;8517;53.546;10.104;2023-05-07T08:12:22;6.57;;;5.60;;
11220;SDS011;8517;53.546;10.104;2023-05-07T08:14:49;5.73;;;5.23;;
11220;SDS011;8517;53.546;10.104;2023-05-07T08:17:17;6.67;;;5.97;;
11220;SDS011;8517;53.546;10.104;2023-05-07T08:19:47;6.50;;;5.87;;
11220;SDS011;8517;53.546;10.104;2023-05-07T08:22:13;7.17;;;5.80;;
11220;SDS011;8517;53.546;10.104;2023-05-07T08:24:40;7.20;;;6.50;;
11220;SDS011;8517;53.546;10.104;2023-05-07T08:27:07;6.80;;;6.10;;
11220;SDS011;8517;53.546;10.104;2023-05-07T08:29:34;8.87;;;7.10;;
11220;SDS011;8517;53.546;10.104;2023-05-07T08:32:01;6.03;;;5.30;;
11220;SDS011;8517;53.546;10.104;2023-05-07T08:34:29;5.43;;;3.80;;
11220;SDS011;8517;53.546;10.104;2023-05-07T08:36:56;5.80;;;5.20;;
11220;SDS011;8517;53.546;10.104;2023-05-07T08:39:23;6.73;;;6.03;;
11220;SDS011;8517;53.546;10.104;2023-05-07T08:41:50;4.90;;;4.23;;
11220;SDS011;8517;53.546;10.104;2023-05-07T08:44:21;5.97;;;5.37;;
11220;SDS011;8517;53.546;10.104;2023-05-07T08:46:52;6.70;;;6.10;;
11220;SDS011;8517;53.546;10.104;2023-05-07T08:49:21;7.07;;;5.60;;
11220;SDS011;8517;53.546;10.104;2023-05-07T08:51:50;7.47;;;5.00;;
11220;SDS011;8517;53.546;10.104;2023-05-07T08:54:16;6.13;;;5.50;;
11220;SDS011;8517;53.546;10.104;2023-05-07T08:56:44;11.03;;;5.90;;
11220;SDS011;8517;53.546;10.104;2023-05-07T08:59:11;6.97;;;6.20;;
11220;SDS011;8517;53.546;10.104;2023-05-07T09:01:38;6.13;;;5.20;;
11220;SDS011;8517;53.546;10.104;2023-05-07T09:04:05;6.60;;;5.13;;
11220;SDS011;8517;53.546;10.104;2023-05-07T09:06:32;5.60;;;5.10;;
11220;SDS011;8517;53.546;10.104;2023-05-07T09:09:01;5.70;;;5.03;;
11220;SDS011;8517;53.546;10.104;2023-05-07T09:11:30;4.77;;;4.07;;
11220;SDS011;8517;53.546;10.104;2023-05-07T09:13:57;4.60;;;4.20;;
11220;SDS011;8517;53.546;10.104;2023-05-07T09:16:26;6.00;;;5.40;;
11220;SDS011;8517;53.546;10.104;2023-05-07T09:18:54;3.93;;;3.57;;
11220;SDS011;8517;53.546;10.104;2023-05-07T09:21:23;6.47;;;5.17;;
11220;SDS011;8517;53.546;10.104;2023-05-07T09:23:50;5.60;;;5.10;;
11220;SDS011;8517;53.546;10.104;2023-05-07T09:26:19;5.43;;;4.90;;
11220;SDS011;8517;53.546;10.104;2023-05-07T09:28:47;6.93;;;5.07;;
11220;SDS011;8517;53.546;10.104;2023-05-07T09:31:14;5.33;;;4.83;;
11220;SDS011;8517;53.546;10.104;2023-05-07T09:33:41;8.80;;;5.00;;
11220;SDS011;8517;53.546;10.104;2023-05-07T09:36:08;4.50;;;4.10;;
11220;SDS011;8517;53.546;10.104;2023-05-07T09:38:36;5.33;;;4.73;;
11220;SDS011;8517;53.546;10.104;2023-05-07T09:41:04;4.57;;;4.17;;
11220;SDS011;8517;53.546;10.104;2023-05-07T09:43:33;6.43;;;5.33;;
11220;SDS011;8517;53.546;10.104;2023-05-07T09:46:02;5.83;;;5.00;;
11220;SDS011;8517;53.546;10.104;2023-05-07T09:48:32;5.67;;;4.63;;
11220;SDS011;8517;53.546;10.104;2023-05-07T09:51:02;5.57;;;5.03;;
11220;SDS011;8517;53.546;10.104;2023-05-07T09:53:37;5.90;;;4.93;;
11220;SDS011;8517;53.546;10.104;2023-05-07T09:56:06;5.50;;;4.90;;
11220;SDS011;8517;53.546;10.104;2023-05-07T09:58:34;5.43;;;4.93;;
11220;SDS011;8517;53.546;10.104;2023-05-07T10:01:04;5.17;;;4.67;;
11220;SDS011;8517;53.546;10.104;2023-05-07T10:03:32;6.00;;;5.40;;
11220;SDS011;8517;53.546;10.104;2023-05-07T10:06:01;5.10;;;3.70;;
11220;SDS011;8517;53.546;10.104;2023-05-07T10:08:29;6.13;;;5.53;;
11220;SDS011;8517;53.546;10.104;2023-05-07T10:10:57;5.50;;;5.00;;
11220;SDS011;8517;53.546;10.104;2023-05-07T10:13:25;5.97;;;5.30;;
11220;SDS011;8517;53.546;10.104;2023-05-07T10:15:54;6.27;;;5.47;;
11220;SDS011;8517;53.546;10.104;2023-05-07T10:18:21;5.67;;;5.10;;
11220;SDS011;8517;53.546;10.104;2023-05-07T10:20:54;5.90;;;5.03;;
11220;SDS011;8517;53.546;10.104;2023-05-07T10:23:23;3.87;;;2.97;;
11220;SDS011;8517;53.546;10.104;2023-05-07T10:25:53;5.70;;;4.57;;
11220;SDS011;8517;53.546;10.104;2023-05-07T10:28:22;3.90;;;3.60;;
11220;SDS011;8517;53.546;10.104;2023-05-07T10:30:56;7.47;;;4.70;;
11220;SDS011;8517;53.546;10.104;2023-05-07T10:33:31;5.70;;;5.10;;
11220;SDS011;8517;53.546;10.104;2023-05-07T10:36:00;5.10;;;4.60;;
11220;SDS011;8517;53.546;10.104;2023-05-07T10:38:29;5.17;;;4.67;;
11220;SDS011;8517;53.546;10.104;2023-05-07T10:40:56;5.10;;;4.60;;
11220;SDS011;8517;53.546;10.104;2023-05-07T10:43:23;4.33;;;3.93;;
11220;SDS011;8517;53.546;10.104;2023-05-07T10:46:10;5.10;;;4.40;;
11220;SDS011;8517;53.546;10.104;2023-05-07T10:51:37;4.93;;;4.30;;
11220;SDS011;8517;53.546;10.104;2023-05-07T10:54:20;5.10;;;4.60;;
11220;SDS011;8517;53.546;10.104;2023-05-07T10:56:48;5.53;;;4.30;;
11220;SDS011;8517;53.546;10.104;2023-05-07T10:59:31;4.70;;;4.30;;
11220;SDS011;8517;53.546;10.104;2023-05-07T11:02:09;3.80;;;3.40;;
11220;SDS011;8517;53.546;10.104;2023-05-07T11:04:39;3.90;;;3.50;;
11220;SDS011;8517;53.546;10.104;2023-05-07T11:09:59;4.10;;;2.93;;
11220;SDS011;8517;53.546;10.104;2023-05-07T11:15:15;3.77;;;3.47;;
11220;SDS011;8517;53.546;10.104;2023-05-07T11:18:00;4.40;;;3.80;;
11220;SDS011;8517;53.546;10.104;2023-05-07T11:26:41;3.87;;;3.43;;
11220;SDS011;8517;53.546;10.104;2023-05-07T11:29:12;3.97;;;3.67;;
11220;SDS011;8517;53.546;10.104;2023-05-07T11:31:40;4.43;;;3.93;;
11220;SDS011;8517;53.546;10.104;2023-05-07T11:34:08;4.23;;;3.37;;
11220;SDS011;8517;53.546;10.104;2023-05-07T11:36:42;3.30;;;3.00;;
11220;SDS011;8517;53.546;10.104;2023-05-07T11:39:24;3.70;;;3.40;;
11220;SDS011;8517;53.546;10.104;2023-05-07T11:41:54;3.53;;;3.10;;
11220;SDS011;8517;53.546;10.104;2023-05-07T11:44:21;4.07;;;3.50;;
11220;SDS011;8517;53.546;10.104;2023-05-07T11:46:48;5.40;;;3.83;;
11220;SDS011;8517;53.546;10.104;2023-05-07T11:49:16;3.60;;;3.13;;
11220;SDS011;8517;53.546;10.104;2023-05-07T11:51:44;2.90;;;1.93;;
11220;SDS011;8517;53.546;10.104;2023-05-07T11:54:11;4.27;;;3.30;;
11220;SDS011;8517;53.546;10.104;2023-05-07T11:56:42;9.37;;;7.70;;
11220;SDS011;8517;53.546;10.104;2023-05-07T11:59:10;4.10;;;3.70;;
11220;SDS011;8517;53.546;10.104;2023-05-07T12:01:37;2.70;;;2.50;;
11220;SDS011;8517;53.546;10.104;2023-05-07T12:04:04;3.40;;;3.10;;
11220;SDS011;8517;53.546;10.104;2023-05-07T12:06:35;3.10;;;2.80;;
11220;SDS011;8517;53.546;10.104;2023-05-07T12:09:04;2.93;;;2.73;;
11220;SDS011;8517;53.546;10.104;2023-05-07T12:11:32;2.60;;;2.40;;
11220;SDS011;8517;53.546;10.104;2023-05-07T12:13:59;2.63;;;2.10;;
11220;SDS011;8517;53.546;10.104;2023-05-07T12:16:26;2.90;;;2.47;;
11220;SDS011;8517;53.546;10.104;2023-05-07T12:18:53;3.90;;;2.80;;
11220;SDS011;8517;53.546;10.104;2023-05-07T12:21:22;2.50;;;2.30;;
11220;SDS011;8517;53.546;10.104;2023-05-07T12:23:51;2.90;;;2.57;;
11220;SDS011;8517;53.546;10.104;2023-05-07T12:26:19;3.33;;;2.83;;
11220;SDS011;8517;53.546;10.104;2023-05-07T12:28:46;2.97;;;2.50;;
11220;SDS011;8517;53.546;10.104;2023-05-07T12:31:13;3.40;;;2.60;;
11220;SDS011;8517;53.546;10.104;2023-05-07T12:33:44;3.80;;;2.73;;
11220;SDS011;8517;53.546;10.104;2023-05-07T12:36:16;3.83;;;2.67;;
11220;SDS011;8517;53.546;10.104;2023-05-07T12:38:43;2.83;;;2.33;;
11220;SDS011;8517;53.546;10.104;2023-05-07T12:41:12;2.70;;;2.47;;
11220;SDS011;8517;53.546;10.104;2023-05-07T12:43:39;2.63;;;2.43;;
11220;SDS011;8517;53.546;10.104;2023-05-07T12:46:06;2.80;;;2.60;;
11220;SDS011;8517;53.546;10.104;2023-05-07T12:48:35;3.53;;;2.70;;
11220;SDS011;8517;53.546;10.104;2023-05-07T12:51:02;3.43;;;2.37;;
11220;SDS011;8517;53.546;10.104;2023-05-07T12:53:31;3.27;;;2.97;;
11220;SDS011;8517;53.546;10.104;2023-05-07T12:55:58;2.40;;;2.20;;
11220;SDS011;8517;53.546;10.104;2023-05-07T12:58:27;2.07;;;1.97;;
11220;SDS011;8517;53.546;10.104;2023-05-07T13:00:55;2.43;;;2.23;;
11220;SDS011;8517;53.546;10.104;2023-05-07T13:03:28;2.27;;;2.17;;
11220;SDS011;8517;53.546;10.104;2023-05-07T13:06:05;2.80;;;2.60;;
11220;SDS011;8517;53.546;10.104;2023-05-07T13:08:35;3.00;;;2.10;;
11220;SDS011;8517;53.546;10.104;2023-05-07T13:11:06;2.70;;;2.10;;
11220;SDS011;8517;53.546;10.104;2023-05-07T13:13:35;3.57;;;2.60;;
11220;SDS011;8517;53.546;10.104;2023-05-07T13:16:05;2.63;;;2.43;;
11220;SDS011;8517;53.546;10.104;2023-05-07T13:18:33;2.93;;;2.30;;
11220;SDS011;8517;53.546;10.104;2023-05-07T13:21:00;3.07;;;2.13;;
11220;SDS011;8517;53.546;10.104;2023-05-07T13:23:27;1.97;;;1.87;;
11220;SDS011;8517;53.546;10.104;2023-05-07T13:25:55;2.33;;;2.20;;
11220;SDS011;8517;53.546;10.104;2023-05-07T13:28:22;2.20;;;2.00;;
11220;SDS011;8517;53.546;10.104;2023-05-07T13:30:50;2.50;;;2.10;;
11220;SDS011;8517;53.546;10.104;2023-05-07T13:33:18;3.63;;;2.20;;
11220;SDS011;8517;53.546;10.104;2023-05-07T13:35:45;2.40;;;2.20;;
11220;SDS011;8517;53.546;10.104;2023-05-07T13:38:13;2.27;;;2.07;;
11220;SDS011;8517;53.546;10.104;2023-05-07T13:40:40;2.50;;;2.30;;
11220;SDS011;8517;53.546;10.104;2023-05-07T13:43:07;3.50;;;2.60;;
11220;SDS011;8517;53.546;10.104;2023-05-07T13:45:35;2.60;;;2.40;;
11220;SDS011;8517;53.546;10.104;2023-05-07T13:48:03;2.40;;;2.20;;
11220;SDS011;8517;53.546;10.104;2023-05-07T13:50:30;2.27;;;1.90;;
11220;SDS011;8517;53.546;10.104;2023-05-07T13:52:57;2.40;;;2.20;;
11220;SDS011;8517;53.546;10.104;2023-05-07T13:55:24;2.00;;;1.90;;
11220;SDS011;8517;53.546;10.104;2023-05-07T13:57:55;2.17;;;1.97;;
11220;SDS011;8517;53.546;10.104;2023-05-07T14:00:24;3.23;;;1.80;;
11220;SDS011;8517;53.546;10.104;2023-05-07T14:02:51;3.53;;;2.40;;
11220;SDS011;8517;53.546;10.104;2023-05-07T14:05:19;2.40;;;2.20;;
11220;SDS011;8517;53.546;10.104;2023-05-07T14:07:48;2.17;;;1.97;;
11220;SDS011;8517;53.546;10.104;2023-05-07T14:10:16;2.70;;;2.30;;
11220;SDS011;8517;53.546;10.104;2023-05-07T14:12:43;2.33;;;2.00;;
11220;SDS011;8517;53.546;10.104;2023-05-07T14:15:15;2.17;;;1.90;;
11220;SDS011;8517;53.546;10.104;2023-05-07T14:17:42;3.93;;;3.17;;
11220;SDS011;8517;53.546;10.104;2023-05-07T14:20:10;2.30;;;1.93;;
11220;SDS011;8517;53.546;10.104;2023-05-07T14:22:38;2.30;;;2.10;;
11220;SDS011;8517;53.546;10.104;2023-05-07T14:25:06;4.60;;;2.10;;
11220;SDS011;8517;53.546;10.104;2023-05-07T14:27:34;2.63;;;2.30;;
11220;SDS011;8517;53.546;10.104;2023-05-07T14:30:01;2.03;;;1.83;;
11220;SDS011;8517;53.546;10.104;2023-05-07T14:32:28;2.20;;;2.00;;
11220;SDS011;8517;53.546;10.104;2023-05-07T14:35:04;2.30;;;2.10;;
11220;SDS011;8517;53.546;10.104;2023-05-07T14:37:31;2.43;;;2.10;;
11220;SDS011;8517;53.546;10.104;2023-05-07T14:40:02;2.47;;;2.27;;
11220;SDS011;8517;53.546;10.104;2023-05-07T14:42:31;2.73;;;2.40;;
11220;SDS011;8517;53.546;10.104;2023-05-07T14:44:58;2.60;;;2.10;;
11220;SDS011;8517;53.546;10.104;2023-05-07T14:47:25;3.73;;;1.93;;
11220;SDS011;8517;53.546;10.104;2023-05-07T14:49:52;2.77;;;1.93;;
11220;SDS011;8517;53.546;10.104;2023-05-07T14:52:42;2.33;;;2.13;;
11220;SDS011;8517;53.546;10.104;2023-05-07T14:55:11;2.43;;;1.90;;
11220;SDS011;8517;53.546;10.104;2023-05-07T14:57:38;2.13;;;1.93;;
11220;SDS011;8517;53.546;10.104;2023-05-07T15:00:05;2.20;;;2.03;;
11220;SDS011;8517;53.546;10.104;2023-05-07T15:02:34;2.77;;;1.97;;
11220;SDS011;8517;53.546;10.104;2023-05-07T15:05:01;2.23;;;2.03;;